Time;durP1;ratioP1;P1;durP2;ratioP2;P2;SDS_P1;SDS_P2;PMS_P1;PMS_P2;Temp;Humidity;BMP_temperature;BMP_pressure;BME280_temperature;BME280_humidity;BME280_pressure;Samples;Min_cycle;Max_cycle;Signal;HPM_P1;HPM_P2
2022/01/10 00:00:12;;;;;;;8.00;4.13;;;16.60;53.90;;;;;;5079744;27;88602;-76
2022/01/10 00:02:38;;;;;;;7.85;4.30;;;16.60;53.80;;;;;;5074444;27;89471;-75
2022/01/10 00:05:04;;;;;;;8.38;4.22;;;16.60;53.80;;;;;;5075510;27;91181;-75
2022/01/10 00:07:30;;;;;;;6.47;4.13;;;16.60;53.80;;;;;;5075206;27;88224;-74
2022/01/10 00:09:55;;;;;;;6.38;3.83;;;16.60;53.80;;;;;;5075759;27;88318;-75
2022/01/10 00:12:21;;;;;;;7.57;4.30;;;16.60;53.60;;;;;;5075098;27;91577;-75
2022/01/10 00:14:47;;;;;;;9.05;4.40;;;16.70;53.60;;;;;;5075457;27;88367;-76
2022/01/10 00:17:12;;;;;;;7.25;4.15;;;16.70;53.30;;;;;;5075137;27;88136;-74
2022/01/10 00:19:38;;;;;;;9.27;4.32;;;16.70;53.30;;;;;;5076596;27;87342;-75
2022/01/10 00:22:07;;;;;;;7.25;4.40;;;16.70;53.20;;;;;;5077254;27;89228;-75
2022/01/10 00:24:33;;;;;;;8.05;4.30;;;16.80;53.00;;;;;;5076158;27;88107;-75
2022/01/10 00:26:59;;;;;;;8.50;4.15;;;16.80;53.00;;;;;;5074897;27;88824;-75
2022/01/10 00:29:24;;;;;;;7.10;4.22;;;16.80;53.00;;;;;;5074954;27;88438;-75
2022/01/10 00:31:50;;;;;;;7.03;4.35;;;16.80;53.00;;;;;;5075981;27;89056;-75
2022/01/10 00:34:16;;;;;;;8.05;4.40;;;16.80;52.80;;;;;;5074626;27;88383;-75
2022/01/10 00:36:41;;;;;;;7.63;4.00;;;16.80;52.70;;;;;;5077036;27;88136;-75
2022/01/10 00:39:07;;;;;;;6.88;3.85;;;16.80;52.70;;;;;;5078074;27;88360;-75
2022/01/10 00:41:33;;;;;;;11.02;4.40;;;16.80;52.70;;;;;;5079165;27;88061;-75
2022/01/10 00:44:01;;;;;;;6.80;4.10;;;16.80;52.70;;;;;;5078621;27;87759;-75
2022/01/10 00:46:27;;;;;;;6.57;3.97;;;16.90;52.70;;;;;;5077840;27;88098;-75
2022/01/10 00:48:55;;;;;;;7.13;3.95;;;16.90;52.50;;;;;;5077560;27;88370;-76
2022/01/10 00:51:21;;;;;;;7.10;4.07;;;16.90;52.60;;;;;;5078292;27;89753;-75
2022/01/10 00:53:50;;;;;;;6.28;3.92;;;16.90;52.40;;;;;;5078056;27;89688;-75
2022/01/10 00:56:16;;;;;;;7.00;4.28;;;16.90;52.50;;;;;;5078308;27;88045;-75
2022/01/10 00:58:41;;;;;;;7.10;3.88;;;16.80;52.40;;;;;;5077691;27;88456;-75
2022/01/10 01:01:08;;;;;;;7.40;4.28;;;16.80;52.30;;;;;;5077943;27;88478;-75
2022/01/10 01:03:34;;;;;;;7.43;4.15;;;16.80;52.20;;;;;;5077957;27;88501;-75
2022/01/10 01:06:00;;;;;;;8.85;4.68;;;16.90;52.40;;;;;;5079044;27;88485;-75
2022/01/10 01:08:28;;;;;;;6.07;3.85;;;16.80;52.20;;;;;;5078489;27;87435;-75
2022/01/10 01:13:50;;;;;;;7.85;4.00;;;16.90;52.20;;;;;;5077909;27;88100;-75
2022/01/10 01:16:31;;;;;;;7.50;4.22;;;16.90;52.20;;;;;;5077705;27;88807;-75
2022/01/10 01:20:04;;;;;;;7.40;4.20;;;16.80;52.00;;;;;;5077401;27;89627;-75
2022/01/10 01:24:44;;;;;;;7.15;4.13;;;16.80;52.00;;;;;;5062760;27;88577;-75
2022/01/10 01:27:09;;;;;;;8.40;4.55;;;16.80;52.00;;;;;;5076461;27;88055;-75
2022/01/10 01:29:35;;;;;;;6.95;4.38;;;16.80;51.90;;;;;;5076654;27;88611;-75
2022/01/10 01:32:02;;;;;;;6.97;3.90;;;16.80;51.80;;;;;;5077345;27;88077;-75
2022/01/10 01:34:28;;;;;;;6.47;4.25;;;16.80;51.80;;;;;;5079868;27;90365;-76
2022/01/10 01:36:55;;;;;;;7.47;4.22;;;16.90;52.90;;;;;;5078857;27;88255;-75
2022/01/10 01:39:24;;;;;;;6.07;3.70;;;16.80;51.70;;;;;;5077049;27;88133;-75
2022/01/10 01:42:00;;;;;;;6.43;4.18;;;16.80;51.70;;;;;;5076704;27;89216;-76
2022/01/10 01:44:28;;;;;;;7.10;3.80;;;16.80;51.70;;;;;;5076511;27;89067;-75
2022/01/10 01:46:55;;;;;;;8.68;4.15;;;16.80;51.70;;;;;;5077208;27;88311;-75
2022/01/10 01:49:22;;;;;;;7.53;4.07;;;16.80;51.70;;;;;;5076632;27;88018;-75
2022/01/10 01:51:49;;;;;;;8.13;4.32;;;16.80;51.70;;;;;;5076808;27;88070;-75
2022/01/10 01:54:15;;;;;;;7.68;4.28;;;16.80;51.60;;;;;;5077029;27;88550;-76
2022/01/10 01:56:41;;;;;;;10.00;4.45;;;16.80;51.50;;;;;;5076813;27;88457;-75
2022/01/10 01:59:09;;;;;;;8.73;4.53;;;16.70;51.60;;;;;;5077371;27;87598;-75
2022/01/10 02:01:34;;;;;;;7.18;4.22;;;16.70;51.40;;;;;;5078440;27;89110;-76
2022/01/10 02:04:00;;;;;;;6.55;4.45;;;16.70;51.30;;;;;;5077173;27;88505;-76
2022/01/10 02:06:26;;;;;;;6.93;4.38;;;16.70;51.40;;;;;;5078402;27;88789;-75
2022/01/10 02:08:51;;;;;;;7.53;4.32;;;16.70;51.30;;;;;;5078286;27;88245;-75
2022/01/10 02:11:18;;;;;;;7.25;4.32;;;16.70;51.40;;;;;;5078269;27;88812;-75
2022/01/10 02:13:45;;;;;;;8.38;4.43;;;16.70;51.30;;;;;;5077639;27;88339;-75
2022/01/10 02:16:16;;;;;;;8.85;4.78;;;16.70;51.40;;;;;;5077956;27;88340;-75
2022/01/10 02:18:42;;;;;;;7.28;4.13;;;16.70;51.40;;;;;;5077417;27;88670;-75
2022/01/10 02:21:09;;;;;;;8.15;4.35;;;16.70;51.40;;;;;;5077688;27;88335;-75
2022/01/10 02:23:36;;;;;;;7.28;4.13;;;16.70;51.30;;;;;;5078025;27;88887;-75
2022/01/10 02:26:02;;;;;;;7.30;4.82;;;16.70;51.30;;;;;;5077979;27;88074;-75
2022/01/10 02:28:28;;;;;;;7.88;4.53;;;16.60;51.20;;;;;;5076224;27;88509;-75
2022/01/10 02:30:57;;;;;;;6.72;4.20;;;16.60;51.20;;;;;;5076165;27;89410;-75
2022/01/10 02:33:25;;;;;;;7.50;4.28;;;16.60;51.20;;;;;;5076089;27;89147;-75
2022/01/10 02:38:19;;;;;;;9.23;4.72;;;16.60;51.20;;;;;;5075373;27;88058;-74
2022/01/10 02:40:46;;;;;;;9.82;4.72;;;16.60;51.20;;;;;;5077169;27;88596;-76
2022/01/10 02:43:12;;;;;;;9.18;4.65;;;16.60;51.20;;;;;;5076616;27;88891;-75
2022/01/10 02:45:38;;;;;;;7.07;4.80;;;16.60;51.20;;;;;;5075723;27;95514;-75
2022/01/10 02:48:04;;;;;;;6.07;4.35;;;16.60;51.20;;;;;;5074896;27;87329;-75
2022/01/10 02:50:31;;;;;;;7.95;4.55;;;16.60;51.20;;;;;;5075681;27;88735;-75
2022/01/10 02:52:57;;;;;;;8.50;4.28;;;16.60;51.30;;;;;;5073807;27;88532;-75
2022/01/10 02:55:22;;;;;;;7.10;4.63;;;16.60;51.30;;;;;;5074093;27;88746;-74
2022/01/10 02:57:48;;;;;;;9.77;4.70;;;16.60;51.30;;;;;;5073691;27;88170;-75
2022/01/10 03:00:20;;;;;;;8.80;4.65;;;16.50;51.20;;;;;;5074556;27;88991;-75
2022/01/10 03:02:49;;;;;;;7.63;4.40;;;16.60;51.00;;;;;;5074213;27;88535;-75
2022/01/10 03:05:16;;;;;;;8.23;4.55;;;16.60;51.00;;;;;;5074854;27;88589;-75
2022/01/10 03:07:42;;;;;;;9.77;4.72;;;16.60;51.00;;;;;;5074300;27;88609;-75
2022/01/10 03:10:09;;;;;;;8.23;4.65;;;16.50;50.90;;;;;;5075089;27;89044;-75
2022/01/10 03:12:41;;;;;;;7.97;4.65;;;16.50;51.00;;;;;;5079635;27;88867;-75
2022/01/10 03:15:08;;;;;;;8.25;4.45;;;16.60;50.90;;;;;;5078770;27;88181;-75
2022/01/10 03:17:35;;;;;;;7.97;4.55;;;16.60;50.90;;;;;;5075355;27;89142;-76
2022/01/10 03:20:00;;;;;;;7.07;4.13;;;16.50;50.80;;;;;;5073569;27;89450;-76
2022/01/10 03:22:26;;;;;;;8.13;4.57;;;16.60;50.90;;;;;;5073705;27;89895;-75
2022/01/10 03:24:55;;;;;;;8.82;4.90;;;16.60;50.80;;;;;;5072547;27;88503;-75
2022/01/10 03:27:21;;;;;;;8.70;4.38;;;16.50;50.80;;;;;;5073708;27;88662;-76
2022/01/10 03:29:47;;;;;;;7.20;4.35;;;16.60;50.70;;;;;;5073232;27;90652;-75
2022/01/10 03:32:13;;;;;;;8.25;4.75;;;16.50;50.70;;;;;;5073099;27;88380;-75
2022/01/10 03:34:39;;;;;;;8.80;4.05;;;16.50;50.60;;;;;;5074280;27;88506;-75
2022/01/10 03:37:06;;;;;;;7.18;4.50;;;16.50;50.50;;;;;;5074268;27;87713;-75
2022/01/10 03:39:32;;;;;;;8.13;4.63;;;16.60;50.40;;;;;;5074104;27;89922;-75
2022/01/10 03:41:58;;;;;;;5.95;4.38;;;16.60;50.20;;;;;;5073154;27;88368;-75
2022/01/10 03:44:24;;;;;;;7.40;4.72;;;16.60;50.10;;;;;;5074175;27;88718;-75
2022/01/10 03:46:51;;;;;;;8.80;4.90;;;16.60;51.10;;;;;;5072419;27;88546;-75
2022/01/10 03:49:16;;;;;;;8.68;4.30;;;16.60;50.00;;;;;;5074071;27;88859;-75
2022/01/10 03:51:42;;;;;;;7.30;4.03;;;16.60;49.90;;;;;;5074339;27;88429;-75
2022/01/10 03:54:08;;;;;;;7.15;4.30;;;16.60;49.90;;;;;;5074107;27;88378;-76
2022/01/10 03:56:34;;;;;;;6.20;4.13;;;16.70;49.90;;;;;;5073450;27;88181;-75
2022/01/10 03:58:59;;;;;;;7.65;4.32;;;16.70;49.80;;;;;;5073838;27;88645;-74
2022/01/10 05:43:34;;;;;;;4.97;3.03;;;18.50;46.30;;;;;;5013088;22;91751;-76
2022/01/10 05:46:03;;;;;;;7.35;3.78;;;18.50;46.50;;;;;;4934853;28;89726;-76
2022/01/10 05:48:30;;;;;;;5.38;3.92;;;18.40;46.40;;;;;;4936040;28;88442;-76
2022/01/10 05:50:56;;;;;;;5.55;3.40;;;18.40;46.40;;;;;;4934391;28;89745;-76
2022/01/10 05:53:23;;;;;;;5.80;3.30;;;18.40;46.50;;;;;;4935559;28;89063;-75
2022/01/10 05:55:49;;;;;;;8.52;3.60;;;18.40;46.40;;;;;;4936237;28;88543;-75
2022/01/10 05:58:15;;;;;;;5.50;3.35;;;18.40;46.50;;;;;;4935379;28;88024;-75
2022/01/10 06:00:42;;;;;;;6.88;3.22;;;18.40;46.50;;;;;;4934192;28;89321;-75
2022/01/10 06:03:08;;;;;;;5.60;3.22;;;18.40;46.70;;;;;;4934560;28;89623;-76
2022/01/10 06:05:34;;;;;;;6.30;3.15;;;18.40;46.60;;;;;;4932370;28;88576;-76
2022/01/10 06:08:03;;;;;;;5.65;3.35;;;18.30;46.40;;;;;;4935855;28;88420;-75
2022/01/10 06:10:30;;;;;;;5.50;3.25;;;18.30;46.40;;;;;;4932796;28;88876;-76
2022/01/10 06:12:56;;;;;;;7.50;3.65;;;18.30;46.50;;;;;;4934720;28;88274;-76
2022/01/10 06:15:22;;;;;;;13.20;4.03;;;18.30;46.60;;;;;;4933201;28;88759;-76
2022/01/10 06:17:49;;;;;;;6.53;3.42;;;18.20;46.70;;;;;;4934761;28;87599;-77
2022/01/10 06:20:15;;;;;;;6.28;3.97;;;18.20;46.70;;;;;;4935667;28;90055;-76
2022/01/10 06:22:42;;;;;;;8.30;3.67;;;18.10;46.80;;;;;;4934739;28;88504;-77
2022/01/10 06:25:10;;;;;;;6.68;3.67;;;18.10;46.90;;;;;;4934434;28;89163;-75
2022/01/10 06:27:36;;;;;;;6.00;3.50;;;18.00;47.00;;;;;;4934868;28;88105;-76
2022/01/10 06:30:04;;;;;;;8.73;3.50;;;18.00;47.20;;;;;;4934119;28;88624;-76
2022/01/10 06:32:30;;;;;;;6.70;3.70;;;17.90;47.40;;;;;;4934072;28;90246;-75
2022/01/10 06:34:57;;;;;;;6.35;3.70;;;17.90;47.50;;;;;;4932650;28;88771;-76
2022/01/10 06:37:24;;;;;;;5.65;3.35;;;17.80;47.60;;;;;;4933519;28;88262;-76
2022/01/10 06:39:51;;;;;;;6.40;3.53;;;17.70;47.70;;;;;;4934219;28;88765;-76
2022/01/10 06:42:17;;;;;;;9.05;4.20;;;17.70;47.80;;;;;;4934998;28;88459;-76
2022/01/10 06:44:43;;;;;;;7.55;3.90;;;17.60;47.90;;;;;;4933549;28;88529;-76
2022/01/10 06:47:09;;;;;;;7.47;4.18;;;17.60;48.00;;;;;;4933538;28;88529;-76
2022/01/10 06:49:34;;;;;;;7.95;3.83;;;17.60;48.00;;;;;;4933683;28;89145;-76
2022/01/10 06:52:00;;;;;;;7.68;3.80;;;17.50;49.10;;;;;;4934345;28;89098;-75
2022/01/10 06:54:27;;;;;;;8.55;4.30;;;17.50;48.30;;;;;;4934077;28;88115;-76
2022/01/10 06:56:53;;;;;;;6.55;3.90;;;17.40;48.30;;;;;;4933867;28;88364;-75
2022/01/10 06:59:19;;;;;;;6.53;3.60;;;17.40;48.40;;;;;;4933114;28;89612;-75
2022/01/10 07:01:46;;;;;;;7.05;3.90;;;17.40;48.40;;;;;;4933942;28;88451;-76
2022/01/10 07:04:12;;;;;;;7.28;4.20;;;17.30;48.40;;;;;;4933186;28;88571;-75
2022/01/10 07:06:40;;;;;;;8.18;4.22;;;17.30;48.50;;;;;;4934273;28;88132;-76
2022/01/10 07:09:06;;;;;;;6.47;4.13;;;17.20;48.50;;;;;;4932964;28;89101;-76
2022/01/10 07:11:32;;;;;;;8.45;4.40;;;17.20;48.60;;;;;;4933428;28;88813;-76
2022/01/10 07:13:57;;;;;;;8.70;4.38;;;17.10;48.70;;;;;;4932739;28;89283;-75
2022/01/10 07:16:23;;;;;;;7.03;4.10;;;17.10;48.90;;;;;;4933631;28;88490;-76
2022/01/10 07:18:48;;;;;;;7.53;4.15;;;17.00;49.00;;;;;;4933066;28;90256;-75
2022/01/10 07:21:14;;;;;;;8.35;4.35;;;17.00;49.00;;;;;;4934453;28;91538;-75
2022/01/10 07:23:39;;;;;;;9.20;4.35;;;17.00;49.00;;;;;;4934119;28;88234;-75
2022/01/10 07:26:05;;;;;;;8.02;4.60;;;16.90;49.00;;;;;;4932705;28;88583;-76
2022/01/10 07:28:31;;;;;;;10.32;4.75;;;16.90;49.10;;;;;;4933189;28;89627;-75
2022/01/10 07:30:57;;;;;;;8.00;4.60;;;16.80;49.10;;;;;;4933865;28;89577;-76
2022/01/10 07:33:22;;;;;;;9.48;4.38;;;16.90;49.10;;;;;;4932701;28;88252;-75
2022/01/10 07:35:48;;;;;;;6.88;4.45;;;16.90;49.00;;;;;;4933167;28;88609;-76
2022/01/10 07:38:14;;;;;;;6.68;4.10;;;16.80;48.80;;;;;;4933917;28;90799;-75
2022/01/10 07:40:39;;;;;;;8.00;3.95;;;16.80;48.70;;;;;;4934075;28;90209;-76
2022/01/10 07:43:05;;;;;;;6.80;4.30;;;16.80;48.70;;;;;;4932984;28;88605;-74
2022/01/10 07:45:31;;;;;;;6.32;4.32;;;16.80;48.70;;;;;;4935911;28;87965;-75
2022/01/10 07:47:56;;;;;;;7.15;4.30;;;16.80;48.60;;;;;;4936748;28;89392;-75
2022/01/10 07:50:23;;;;;;;8.43;4.30;;;16.80;48.50;;;;;;4936467;28;88537;-75
2022/01/10 07:52:49;;;;;;;8.35;4.78;;;16.80;48.50;;;;;;4937003;28;88422;-75
2022/01/10 07:55:14;;;;;;;5.70;4.20;;;16.80;48.50;;;;;;4936614;28;87780;-75
2022/01/10 07:57:40;;;;;;;7.43;4.55;;;16.80;48.50;;;;;;4936560;28;89032;-75
2022/01/10 08:00:06;;;;;;;9.30;4.30;;;16.80;48.40;;;;;;4936605;28;88240;-75
2022/01/10 08:02:33;;;;;;;7.18;4.53;;;16.90;48.50;;;;;;4936926;28;89256;-75
2022/01/10 08:04:59;;;;;;;6.72;4.50;;;16.80;48.40;;;;;;4937218;28;88282;-75
2022/01/10 08:07:28;;;;;;;7.60;4.65;;;16.80;48.30;;;;;;4937134;28;88514;-74
2022/01/10 08:09:55;;;;;;;8.27;4.53;;;16.80;48.20;;;;;;4938157;28;90252;-75
2022/01/10 08:12:20;;;;;;;7.03;4.88;;;16.90;48.40;;;;;;4942193;28;94452;-75
2022/01/10 08:14:48;;;;;;;8.45;4.70;;;16.80;48.30;;;;;;4942780;28;88107;-75
2022/01/10 08:17:15;;;;;;;7.43;4.35;;;16.90;48.30;;;;;;4941684;28;89832;-75
2022/01/10 08:19:40;;;;;;;6.65;4.45;;;16.90;48.20;;;;;;4937953;28;89524;-75
2022/01/10 08:22:07;;;;;;;7.00;4.45;;;16.90;48.10;;;;;;4935640;28;89935;-75
2022/01/10 08:24:33;;;;;;;9.27;4.80;;;16.90;48.20;;;;;;4936289;28;88219;-76
2022/01/10 08:26:59;;;;;;;8.27;4.75;;;16.90;48.10;;;;;;4935835;28;90260;-75
2022/01/10 08:29:25;;;;;;;7.05;4.63;;;16.90;48.10;;;;;;4936777;28;89043;-75
2022/01/10 08:31:51;;;;;;;6.43;4.32;;;16.90;48.10;;;;;;4935416;28;88320;-76
2022/01/10 08:34:17;;;;;;;8.70;5.07;;;16.90;48.00;;;;;;4935806;28;88580;-75
2022/01/10 08:36:44;;;;;;;7.05;4.50;;;17.00;48.00;;;;;;4936188;28;89289;-75
2022/01/10 08:39:09;;;;;;;7.05;4.25;;;17.00;49.00;;;;;;4936884;28;88793;-74
2022/01/10 08:41:36;;;;;;;7.72;4.63;;;16.90;47.90;;;;;;4935807;28;88343;-75
2022/01/10 08:44:03;;;;;;;7.32;4.13;;;17.00;47.90;;;;;;4935724;28;87801;-75
2022/01/10 08:46:29;;;;;;;7.88;4.50;;;17.00;47.90;;;;;;4935407;28;89455;-75
2022/01/10 08:48:54;;;;;;;6.95;4.28;;;17.00;47.90;;;;;;4934916;28;88586;-75
2022/01/10 08:51:21;;;;;;;7.68;4.55;;;17.00;47.90;;;;;;4933503;28;89427;-75
2022/01/10 08:53:47;;;;;;;8.93;4.50;;;17.00;47.80;;;;;;4935367;28;88238;-75
2022/01/10 08:56:12;;;;;;;6.97;4.13;;;17.00;47.80;;;;;;4934221;28;88951;-75
2022/01/10 08:58:38;;;;;;;7.32;4.80;;;17.00;47.70;;;;;;4935906;28;88353;-75
2022/01/10 09:01:05;;;;;;;8.30;4.53;;;17.00;47.80;;;;;;4936822;28;88227;-76
2022/01/10 09:03:32;;;;;;;7.90;4.50;;;17.00;47.80;;;;;;4936301;28;88213;-76
2022/01/10 09:05:58;;;;;;;6.57;4.25;;;17.00;47.70;;;;;;4934914;28;89653;-75
2022/01/10 09:08:27;;;;;;;7.65;4.00;;;17.00;47.80;;;;;;4935671;28;88674;-76
2022/01/10 09:10:56;;;;;;;8.32;4.47;;;17.00;47.70;;;;;;4934864;28;88300;-74
2022/01/10 09:13:21;;;;;;;6.15;4.28;;;17.10;47.70;;;;;;4935412;28;88134;-75
2022/01/10 09:15:47;;;;;;;7.78;4.20;;;17.10;47.70;;;;;;4934386;28;89945;-75
2022/01/10 09:18:14;;;;;;;7.63;4.35;;;17.10;47.70;;;;;;4934886;28;88349;-75
2022/01/10 09:20:41;;;;;;;5.90;4.53;;;17.10;47.70;;;;;;4935569;28;88144;-76
2022/01/10 09:23:08;;;;;;;6.93;4.43;;;17.10;47.70;;;;;;4934043;28;88636;-75
2022/01/10 09:25:34;;;;;;;8.05;4.72;;;17.10;47.70;;;;;;4935377;28;89226;-75
2022/01/10 09:28:01;;;;;;;6.20;4.35;;;17.10;47.70;;;;;;4934189;28;89860;-75
2022/01/10 09:30:27;;;;;;;7.63;4.55;;;17.10;47.80;;;;;;4934688;28;88377;-76
2022/01/10 09:32:54;;;;;;;5.32;3.72;;;17.10;47.80;;;;;;4935437;28;87459;-76
2022/01/10 09:35:20;;;;;;;8.90;4.70;;;17.10;47.80;;;;;;4935859;28;88674;-76
2022/01/10 09:37:46;;;;;;;7.05;4.47;;;17.10;47.70;;;;;;4935416;28;88075;-76
2022/01/10 09:40:12;;;;;;;5.00;3.72;;;17.10;47.90;;;;;;4935206;28;89179;-76
2022/01/10 09:42:38;;;;;;;7.10;4.38;;;17.10;47.80;;;;;;4934892;28;88189;-76
2022/01/10 09:45:06;;;;;;;9.27;4.43;;;17.10;47.80;;;;;;4934101;28;90969;-77
2022/01/10 09:47:32;;;;;;;6.75;4.63;;;17.10;47.90;;;;;;4934162;28;88787;-76
2022/01/10 09:49:57;;;;;;;7.75;4.90;;;17.10;47.90;;;;;;4934694;28;88529;-76
2022/01/10 09:52:23;;;;;;;10.38;4.90;;;17.10;47.90;;;;;;4934189;28;88117;-76
2022/01/10 09:54:50;;;;;;;5.75;4.13;;;17.00;47.90;;;;;;4935350;28;89083;-76
2022/01/10 09:57:16;;;;;;;8.55;4.65;;;17.00;48.00;;;;;;4936517;28;88939;-76
2022/01/10 09:59:43;;;;;;;8.70;4.68;;;17.00;48.00;;;;;;4940532;28;88572;-76
2022/01/10 10:02:10;;;;;;;8.52;4.30;;;17.00;48.00;;;;;;4939738;28;88044;-75
2022/01/10 10:04:37;;;;;;;7.22;4.30;;;17.00;48.10;;;;;;4935578;28;89607;-76
2022/01/10 10:07:05;;;;;;;6.22;3.90;;;17.00;48.10;;;;;;4934581;28;88978;-76
2022/01/10 10:09:31;;;;;;;7.07;4.60;;;17.10;48.10;;;;;;4934011;28;88473;-76
2022/01/10 10:11:56;;;;;;;7.60;4.63;;;17.00;48.10;;;;;;4934187;28;88107;-76
2022/01/10 10:14:23;;;;;;;8.75;4.57;;;17.00;48.10;;;;;;4933920;28;88573;-76
2022/01/10 10:16:52;;;;;;;7.07;4.40;;;17.00;48.10;;;;;;4934391;28;88245;-76
2022/01/10 10:19:29;;;;;;;9.32;4.35;;;17.00;48.20;;;;;;4934254;28;88102;-77
2022/01/10 10:21:57;;;;;;;7.38;4.45;;;17.00;48.30;;;;;;4935966;28;87671;-76
2022/01/10 10:24:24;;;;;;;6.32;4.18;;;17.00;48.30;;;;;;4933607;28;88228;-76
2022/01/10 10:26:51;;;;;;;8.30;4.88;;;17.00;48.40;;;;;;4934168;28;88458;-77
2022/01/10 10:29:19;;;;;;;6.40;4.45;;;17.00;48.50;;;;;;4934483;28;89282;-76
2022/01/10 10:31:47;;;;;;;6.88;4.30;;;17.00;48.60;;;;;;4933831;28;88992;-76
2022/01/10 10:34:28;;;;;;;8.27;4.10;;;16.90;48.50;;;;;;4934130;28;88738;-76
2022/01/10 10:37:14;;;;;;;7.07;4.45;;;17.00;48.50;;;;;;4934012;28;88635;-76
2022/01/10 10:39:42;;;;;;;7.75;4.75;;;16.90;48.50;;;;;;4934517;28;89344;-76
2022/01/10 10:42:14;;;;;;;7.82;4.63;;;16.90;48.60;;;;;;4933437;28;88437;-76
2022/01/10 10:44:42;;;;;;;7.30;4.88;;;16.90;48.70;;;;;;4933599;28;89886;-76
2022/01/10 10:47:09;;;;;;;8.25;4.60;;;16.90;49.70;;;;;;4933643;28;90452;-76
2022/01/10 10:49:39;;;;;;;7.47;4.30;;;16.90;48.70;;;;;;4934589;28;90358;-76
2022/01/10 10:52:10;;;;;;;6.60;4.47;;;16.90;48.80;;;;;;4934023;28;89371;-76
2022/01/10 10:54:37;;;;;;;8.18;4.85;;;16.90;48.90;;;;;;4933938;28;89786;-75
2022/01/10 10:57:05;;;;;;;8.93;4.82;;;16.90;49.00;;;;;;4933798;28;93187;-75
2022/01/10 10:59:35;;;;;;;6.07;4.50;;;16.80;49.00;;;;;;4934199;28;88130;-75
2022/01/10 11:02:02;;;;;;;7.72;4.43;;;16.80;48.90;;;;;;4933890;28;88308;-76
2022/01/10 11:04:29;;;;;;;7.10;4.60;;;16.80;49.00;;;;;;4932390;28;89515;-75
2022/01/10 11:06:56;;;;;;;6.18;4.38;;;16.80;49.00;;;;;;4934256;28;88477;-76
2022/01/10 11:09:22;;;;;;;7.60;5.30;;;16.80;49.10;;;;;;4933860;28;88492;-75
2022/01/10 11:11:48;;;;;;;7.40;4.70;;;16.80;49.10;;;;;;4933638;28;87363;-76
2022/01/10 11:14:17;;;;;;;9.20;4.95;;;16.80;49.20;;;;;;4933196;28;88781;-75
2022/01/10 11:16:44;;;;;;;8.48;5.43;;;16.80;49.30;;;;;;4932588;28;89791;-75
2022/01/10 11:19:19;;;;;;;9.07;4.97;;;16.80;49.30;;;;;;4931996;28;89806;-75
2022/01/10 11:21:51;;;;;;;7.93;4.63;;;16.80;49.30;;;;;;4933525;28;89132;-76
2022/01/10 11:24:42;;;;;;;7.97;4.55;;;16.70;49.30;;;;;;4933258;28;88609;-75
2022/01/10 11:27:26;;;;;;;7.82;4.47;;;16.80;49.30;;;;;;4932349;28;89513;-75
2022/01/10 11:29:55;;;;;;;9.73;5.40;;;16.80;49.40;;;;;;4932634;28;88105;-77
2022/01/10 11:32:21;;;;;;;7.68;4.80;;;16.70;49.50;;;;;;4933422;28;88203;-75
2022/01/10 11:34:47;;;;;;;9.68;5.20;;;16.80;49.50;;;;;;4933125;28;89751;-77
2022/01/10 11:37:14;;;;;;;7.63;5.32;;;16.80;49.50;;;;;;4933626;28;89584;-77
2022/01/10 11:39:40;;;;;;;8.55;5.50;;;16.80;49.60;;;;;;4933767;28;88566;-76
2022/01/10 11:42:42;;;;;;;7.88;4.75;;;16.70;49.50;;;;;;4931896;28;88205;-76
2022/01/10 11:45:18;;;;;;;7.45;4.80;;;16.80;49.60;;;;;;4934308;28;89464;-76
2022/01/10 11:48:05;;;;;;;8.45;5.32;;;16.80;49.70;;;;;;4938303;28;89192;-74
2022/01/10 11:50:32;;;;;;;6.25;4.90;;;16.80;49.70;;;;;;4936314;28;88326;-76
2022/01/10 11:53:02;;;;;;;8.35;4.90;;;16.80;49.80;;;;;;4936138;28;88347;-75
2022/01/10 11:55:43;;;;;;;9.52;5.32;;;16.80;49.70;;;;;;4933769;28;90798;-75
2022/01/10 11:58:18;;;;;;;8.20;5.20;;;16.80;49.70;;;;;;4933003;28;88713;-76
2022/01/10 12:00:44;;;;;;;7.93;4.53;;;16.90;49.80;;;;;;4933754;28;88511;-75
2022/01/10 12:03:09;;;;;;;7.25;5.10;;;16.80;49.70;;;;;;4934381;28;87332;-75
2022/01/10 12:05:35;;;;;;;8.00;5.28;;;16.80;49.70;;;;;;4933534;28;88553;-75
2022/01/10 12:08:04;;;;;;;8.32;5.38;;;16.90;49.80;;;;;;4932711;28;88537;-75
2022/01/10 12:10:31;;;;;;;6.70;4.90;;;16.90;49.80;;;;;;4932954;28;88811;-75
2022/01/10 12:13:05;;;;;;;11.40;5.80;;;16.90;49.80;;;;;;4932572;28;88172;-76
2022/01/10 12:15:32;;;;;;;8.13;5.30;;;16.90;49.80;;;;;;4932939;28;90204;-75
2022/01/10 12:17:58;;;;;;;8.35;5.47;;;17.00;49.90;;;;;;4932304;28;88243;-75
2022/01/10 12:20:24;;;;;;;7.75;4.85;;;16.90;49.80;;;;;;4932710;28;88409;-75
2022/01/10 12:22:53;;;;;;;9.60;5.50;;;17.00;49.90;;;;;;4933309;28;88470;-75
2022/01/10 12:25:19;;;;;;;8.93;5.00;;;16.90;49.90;;;;;;4933265;28;89101;-74
2022/01/10 12:27:45;;;;;;;9.10;5.20;;;17.00;50.00;;;;;;4933605;28;88408;-74
2022/01/10 12:30:12;;;;;;;8.68;4.78;;;16.90;49.90;;;;;;4933714;28;88525;-74
2022/01/10 12:32:38;;;;;;;6.93;4.57;;;17.00;50.00;;;;;;4935852;28;88113;-75
2022/01/10 12:35:05;;;;;;;7.53;4.80;;;16.90;50.00;;;;;;4937335;28;89298;-75
2022/01/10 12:37:32;;;;;;;7.07;4.80;;;17.00;50.00;;;;;;4936935;28;91795;-75
2022/01/10 12:39:57;;;;;;;8.48;5.05;;;17.00;50.10;;;;;;4935757;28;88233;-75
2022/01/10 12:42:26;;;;;;;8.40;5.07;;;17.00;50.10;;;;;;4936356;28;89480;-75
2022/01/10 12:44:52;;;;;;;7.32;5.03;;;17.00;50.10;;;;;;4937284;28;90230;-75
2022/01/10 12:47:18;;;;;;;8.52;5.20;;;17.00;50.10;;;;;;4936368;28;89299;-74
2022/01/10 12:49:47;;;;;;;7.80;5.20;;;17.00;50.10;;;;;;4936789;28;88229;-76
2022/01/10 12:52:14;;;;;;;8.13;4.90;;;17.00;50.10;;;;;;4937788;28;87688;-75
2022/01/10 12:54:40;;;;;;;8.38;5.30;;;17.00;50.10;;;;;;4936390;28;88706;-75
2022/01/10 12:57:06;;;;;;;9.07;5.18;;;17.00;50.10;;;;;;4935959;28;88489;-74
2022/01/10 12:59:36;;;;;;;7.38;4.90;;;17.00;50.10;;;;;;4936252;28;89294;-74
2022/01/10 13:02:06;;;;;;;8.05;5.13;;;17.00;50.20;;;;;;4936503;28;88107;-75
2022/01/10 13:04:35;;;;;;;8.90;5.13;;;17.10;50.20;;;;;;4936730;28;89121;-74
2022/01/10 13:07:04;;;;;;;9.07;5.30;;;17.10;50.30;;;;;;4936963;28;88697;-74
2022/01/10 13:09:30;;;;;;;7.95;5.30;;;17.00;50.20;;;;;;4937001;28;88322;-74
2022/01/10 13:12:12;;;;;;;6.60;5.15;;;17.00;50.30;;;;;;4937469;28;87992;-74
2022/01/10 13:14:38;;;;;;;6.82;4.68;;;17.10;50.40;;;;;;4937577;28;88566;-73
2022/01/10 13:17:08;;;;;;;8.68;5.30;;;17.10;50.40;;;;;;4937153;28;88422;-75
2022/01/10 13:19:37;;;;;;;8.55;5.20;;;17.10;50.40;;;;;;4935628;28;88583;-76
2022/01/10 13:22:08;;;;;;;9.68;5.20;;;17.10;50.40;;;;;;4936576;28;88417;-76
2022/01/10 13:24:43;;;;;;;7.82;5.22;;;17.10;50.40;;;;;;4936170;28;89335;-75
2022/01/10 13:27:18;;;;;;;7.60;5.15;;;17.10;50.40;;;;;;4935857;28;89243;-76
2022/01/10 13:29:55;;;;;;;6.45;5.05;;;17.10;50.40;;;;;;4935660;28;88123;-74
2022/01/10 13:32:27;;;;;;;9.27;5.18;;;17.10;50.40;;;;;;4937056;28;88072;-75
2022/01/10 13:35:00;;;;;;;7.00;5.17;;;17.10;50.40;;;;;;4938199;28;88393;-75
2022/01/10 13:37:34;;;;;;;8.23;5.45;;;17.10;50.40;;;;;;4939218;28;88275;-73
2022/01/10 13:40:11;;;;;;;9.05;5.60;;;17.10;50.40;;;;;;4943120;28;88272;-74
2022/01/10 13:43:04;;;;;;;8.60;5.47;;;17.10;50.40;;;;;;4935666;28;87399;-74
2022/01/10 13:46:00;;;;;;;10.00;5.32;;;17.10;50.40;;;;;;4934030;28;89853;-74
2022/01/10 13:48:34;;;;;;;9.95;5.75;;;17.10;50.50;;;;;;4936575;28;88730;-74
2022/01/10 13:51:18;;;;;;;7.95;5.05;;;17.10;50.60;;;;;;4936047;28;88978;-73
2022/01/10 13:53:43;;;;;;;7.35;4.95;;;17.10;50.60;;;;;;4935929;28;89703;-74
2022/01/10 13:56:29;;;;;;;7.82;5.30;;;17.10;50.60;;;;;;4934895;28;88650;-74
2022/01/10 13:59:04;;;;;;;8.80;5.18;;;17.20;50.60;;;;;;4934885;28;88748;-74
2022/01/10 14:01:41;;;;;;;10.80;5.50;;;17.10;50.50;;;;;;4934725;28;88352;-75
2022/01/10 14:04:32;;;;;;;8.27;5.30;;;17.10;50.60;;;;;;4935275;28;88510;-74
2022/01/10 14:07:00;;;;;;;8.45;5.22;;;17.10;50.60;;;;;;4934792;28;89416;-74
2022/01/10 14:09:29;;;;;;;7.55;5.20;;;17.10;50.60;;;;;;4935096;28;89905;-74
2022/01/10 14:11:54;;;;;;;9.73;5.65;;;17.10;50.70;;;;;;4934891;28;88728;-74
2022/01/10 14:14:20;;;;;;;7.43;5.53;;;17.10;50.80;;;;;;4934663;28;88220;-75
2022/01/10 14:16:49;;;;;;;8.68;4.85;;;17.00;50.60;;;;;;4935015;28;88828;-74
2022/01/10 14:19:16;;;;;;;9.18;5.50;;;17.10;50.70;;;;;;4935536;28;91042;-74
2022/01/10 14:21:42;;;;;;;9.30;5.53;;;17.00;50.70;;;;;;4935187;28;88670;-74
2022/01/10 14:24:08;;;;;;;8.85;5.55;;;17.00;50.70;;;;;;4933466;28;88673;-74
2022/01/10 14:26:35;;;;;;;8.85;5.80;;;17.00;50.70;;;;;;4934527;28;88667;-74
2022/01/10 14:29:03;;;;;;;12.32;6.00;;;17.10;50.80;;;;;;4934240;28;89431;-74
2022/01/10 14:31:30;;;;;;;7.40;5.63;;;17.00;50.70;;;;;;4934859;28;89468;-74
2022/01/10 14:33:56;;;;;;;8.40;5.70;;;17.00;50.70;;;;;;4935496;28;87286;-74
2022/01/10 14:36:22;;;;;;;7.28;5.18;;;17.00;50.90;;;;;;4936083;28;88476;-74
2022/01/10 14:38:48;;;;;;;7.82;5.03;;;17.00;50.80;;;;;;4935437;28;88096;-74